Bookmark and Share
Track history (hours):
 

Ina Theresa

Last reported at 2014-Apr-17 08:16 UTC. Time now 2014-Apr-17 18:43 UTC.
Position N 29°25' W 089°36'.

Length 122 m; draft 8.3 m.

Type: Ship (hazmat cat B). MMSI: 538004548.

NotesDate/timePositionNaut miles runAvg speedWind from/ knotsBaromVisibWave heightAir tempDewpointWater temp
2014-Apr-17 08:16N 29°25' W 089°36'2313.7
2014-Apr-17 06:33N 29°39' W 089°57'20 6.8
2014-Apr-17 03:33N 29°55' W 090°12'6 6.5
2014-Apr-17 02:33N 29°56' W 090°19'0 0.0
2014-Apr-17 01:33N 29°56' W 090°19'0 0.0
2014-Apr-16 23:33N 29°56' W 090°19'0 0.0
2014-Apr-16 22:30N 29°56' W 090°19'0 0.0
2014-Apr-16 12:12N 29°56' W 090°19'0 0.0
2014-Apr-16 11:30N 29°56' W 090°19'0 0.0
2014-Apr-16 10:33N 29°56' W 090°19'0 0.0
2014-Apr-16 09:30N 29°56' W 090°19'0 0.0
2014-Apr-16 08:30N 29°56' W 090°19'0 0.0
2014-Apr-16 07:30N 29°56' W 090°19'0 0.0
2014-Apr-16 06:33N 29°56' W 090°19'0 0.0
2014-Apr-16 05:30N 29°56' W 090°19'0 0.0
2014-Apr-16 04:30N 29°56' W 090°19'0 0.0
2014-Apr-16 03:33N 29°56' W 090°19'0 0.2
2014-Apr-16 02:33N 29°56' W 090°19'1 1.0
2014-Apr-16 01:18N 29°57' W 090°18'0 0.0
2014-Apr-16 00:30N 29°57' W 090°18'0 0.0
2014-Apr-15 23:15N 29°57' W 090°18'0 0.0
2014-Apr-15 10:34N 29°57' W 090°18'0 0.0
2014-Apr-15 09:34N 29°57' W 090°18'0 0.0
2014-Apr-15 07:31N 29°57' W 090°18'0 0.0
2014-Apr-15 06:34N 29°57' W 090°18'0 0.0
2014-Apr-15 05:34N 29°57' W 090°18'0 0.0
2014-Apr-15 01:31N 29°57' W 090°18'0 0.0
2014-Apr-14 22:34N 29°57' W 090°18'0 0.0
2014-Apr-14 21:31N 29°57' W 090°18'0 0.0
2014-Apr-13 12:33N 29°57' W 090°18'0 0.0
2014-Apr-13 11:33N 29°57' W 090°18'0 0.0
2014-Apr-13 10:18N 29°57' W 090°18'0 0.0
2014-Apr-13 09:33N 29°57' W 090°18'0 0.0
2014-Apr-13 08:30N 29°57' W 090°18'0 0.0
2014-Apr-13 07:33N 29°57' W 090°18'0 0.0
2014-Apr-13 06:21N 29°57' W 090°18'0 0.0
2014-Apr-13 05:30N 29°57' W 090°18'0 0.0
2014-Apr-13 04:33N 29°57' W 090°18'0 0.0
2014-Apr-13 03:33N 29°57' W 090°18'0 0.0
2014-Apr-13 02:33N 29°57' W 090°18'0 0.0
2014-Apr-13 01:30N 29°57' W 090°18'0 0.0
2014-Apr-13 00:30N 29°57' W 090°18'0 0.0
2014-Apr-12 12:24N 29°57' W 090°18'0 0.0
2014-Apr-12 11:33N 29°57' W 090°18'0 0.0
2014-Apr-12 10:33N 29°57' W 090°18'0 0.0
2014-Apr-12 09:09N 29°57' W 090°18'0 0.0
2014-Apr-12 08:33N 29°57' W 090°18'0 0.0
2014-Apr-12 07:24N 29°57' W 090°18'0 0.0
2014-Apr-12 06:30N 29°57' W 090°18'0 0.0
2014-Apr-12 04:24N 29°57' W 090°18'0 0.0
2014-Apr-12 03:27N 29°57' W 090°18'0 0.0
2014-Apr-12 01:33N 29°57' W 090°18'0 0.0
2014-Apr-11 12:21N 29°57' W 090°18'0 0.0
2014-Apr-11 11:33N 29°57' W 090°18'0 0.0
2014-Apr-11 10:33N 29°57' W 090°18'5 4.5
2014-Apr-11 09:29N 29°56' W 090°13'7 5.7
2014-Apr-11 08:19N 29°55' W 090°05'250 6.0
2014-Apr-09 14:33N 29°29' W 094°52'1111.1
2014-Apr-09 13:33N 29°39' W 094°58'8 8.3
2014-Apr-09 12:33N 29°45' W 095°04'7 6.4
2014-Apr-09 11:29N 29°44' W 095°12'5 0.2
2014-Apr-08 13:06N 29°45' W 095°17'0 0.0
2014-Apr-08 00:24N 29°45' W 095°17'0 0.0
2014-Apr-07 23:24N 29°45' W 095°17'0 0.0
2014-Apr-07 21:18N 29°45' W 095°17'0 0.0
2014-Apr-07 20:12N 29°45' W 095°17'2 0.1
2014-Apr-07 08:23N 29°44' W 095°16'  

Dump ship's entire track history

sailing weather and tide predictions

Ina Theresa — V7UJ2 — position and weather